Time;durP1;ratioP1;P1;durP2;ratioP2;P2;SDS_P1;SDS_P2;PMS_P1;PMS_P2;Temp;Humidity;BMP_temperature;BMP_pressure;BME280_temperature;BME280_humidity;BME280_pressure;Samples;Min_cycle;Max_cycle;Signal;HPM_P1;HPM_P2
2024/03/21 00:01:35;;;;;;;16.40;7.35;;;12.30;99.90;;;;;;5053897;28;20104;-42
2024/03/21 00:04:01;;;;;;;12.80;6.85;;;12.20;99.90;;;;;;5052831;28;20037;-43
2024/03/21 00:06:27;;;;;;;13.13;7.10;;;12.20;99.90;;;;;;5054668;28;20021;-45
2024/03/21 00:08:53;;;;;;;13.20;7.68;;;12.20;99.90;;;;;;5053274;28;20041;-44
2024/03/21 00:11:20;;;;;;;11.73;7.22;;;12.20;99.90;;;;;;5054099;28;20029;-44
2024/03/21 00:13:45;;;;;;;14.57;6.43;;;12.20;99.90;;;;;;5054444;28;20099;-43
2024/03/21 00:16:12;;;;;;;17.13;7.38;;;12.30;99.90;;;;;;5054768;28;20029;-46
2024/03/21 00:18:38;;;;;;;12.18;7.53;;;12.20;99.90;;;;;;5054847;28;20060;-43
2024/03/21 00:21:04;;;;;;;15.80;7.85;;;12.20;99.90;;;;;;5054890;28;20057;-44
2024/03/21 00:23:30;;;;;;;14.10;6.53;;;12.20;99.90;;;;;;5054462;28;20071;-45
2024/03/21 00:26:05;;;;;;;16.10;7.22;;;12.20;99.90;;;;;;5054889;28;20516;-51
2024/03/21 00:28:31;;;;;;;13.95;7.10;;;12.20;99.90;;;;;;5054435;28;20024;-44
2024/03/21 00:30:58;;;;;;;11.48;6.40;;;12.20;99.90;;;;;;5053732;28;20517;-44
2024/03/21 00:33:24;;;;;;;10.70;6.07;;;12.20;99.90;;;;;;5054105;28;20029;-44
2024/03/21 00:35:51;;;;;;;16.70;6.78;;;12.20;99.90;;;;;;5053745;28;20108;-41
2024/03/21 00:38:17;;;;;;;17.30;6.68;;;12.20;99.90;;;;;;5054155;28;20009;-43
2024/03/21 00:40:42;;;;;;;13.18;6.60;;;12.20;99.90;;;;;;5053934;28;20029;-45
2024/03/21 00:43:08;;;;;;;10.52;5.82;;;12.20;99.90;;;;;;5054712;28;20497;-44
2024/03/21 00:45:34;;;;;;;12.45;6.35;;;12.20;99.90;;;;;;5053405;28;20028;-44
2024/03/21 00:48:05;;;;;;;12.73;6.57;;;12.20;99.90;;;;;;5054368;28;20385;-41
2024/03/21 00:50:31;;;;;;;16.38;7.28;;;12.20;99.90;;;;;;5053504;28;20437;-56
2024/03/21 00:52:57;;;;;;;11.88;6.55;;;12.20;99.90;;;;;;5053628;28;20048;-43
2024/03/21 00:55:22;;;;;;;12.77;7.22;;;12.20;99.90;;;;;;5053526;28;20478;-42
2024/03/21 00:57:48;;;;;;;14.05;7.18;;;12.20;99.90;;;;;;5054185;28;20024;-42
2024/03/21 01:00:14;;;;;;;16.42;8.32;;;12.00;99.90;;;;;;5053580;28;20028;-45
2024/03/21 01:02:40;;;;;;;12.68;6.70;;;12.00;99.90;;;;;;5053969;28;20049;-41
2024/03/21 01:05:08;;;;;;;20.90;8.40;;;12.00;99.90;;;;;;5054144;28;20392;-45
2024/03/21 01:07:34;;;;;;;15.85;7.65;;;11.90;99.90;;;;;;5053859;28;20100;-42
2024/03/21 01:09:59;;;;;;;19.58;7.00;;;11.90;99.90;;;;;;5053391;28;20136;-41
2024/03/21 01:12:25;;;;;;;19.83;8.07;;;11.80;99.90;;;;;;5053725;28;20040;-41
2024/03/21 01:14:51;;;;;;;18.65;8.93;;;11.80;99.90;;;;;;5053723;28;20059;-43
2024/03/21 01:17:18;;;;;;;16.83;8.55;;;11.80;99.90;;;;;;5053003;28;20028;-43
2024/03/21 01:19:44;;;;;;;17.70;9.10;;;11.90;99.90;;;;;;5053648;28;20029;-43
2024/03/21 01:22:09;;;;;;;18.83;8.82;;;11.80;99.90;;;;;;5053187;28;20029;-45
2024/03/21 01:24:35;;;;;;;23.95;10.13;;;11.70;99.90;;;;;;5052947;28;20485;-44
2024/03/21 01:27:01;;;;;;;23.83;10.73;;;11.70;99.90;;;;;;5053525;28;20029;-46
2024/03/21 01:29:26;;;;;;;32.42;11.63;;;11.70;99.90;;;;;;5053787;28;20031;-45
2024/03/21 01:31:52;;;;;;;25.20;11.95;;;11.60;99.90;;;;;;5053162;28;20115;-55
2024/03/21 01:34:18;;;;;;;24.40;11.85;;;11.60;99.90;;;;;;5053238;28;20417;-55
2024/03/21 01:36:47;;;;;;;26.88;12.55;;;11.50;99.90;;;;;;5053200;28;20033;-57
2024/03/21 01:39:14;;;;;;;27.25;13.38;;;11.50;99.90;;;;;;5052224;28;20036;-56
2024/03/21 01:41:40;;;;;;;25.40;12.80;;;11.50;99.90;;;;;;5052911;28;20107;-56
2024/03/21 01:44:16;;;;;;;25.95;13.23;;;11.50;99.90;;;;;;5052754;28;20017;-57
2024/03/21 01:46:43;;;;;;;30.90;14.48;;;11.40;99.90;;;;;;5052463;28;20031;-55
2024/03/21 01:49:09;;;;;;;32.60;14.60;;;11.40;99.90;;;;;;5052641;28;20497;-55
2024/03/21 01:51:36;;;;;;;26.73;15.02;;;11.40;99.90;;;;;;5053037;28;20516;-53
2024/03/21 01:54:03;;;;;;;31.13;12.98;;;11.30;99.90;;;;;;5051250;28;20028;-55
2024/03/21 01:56:28;;;;;;;24.92;13.38;;;11.20;99.90;;;;;;5052718;28;20478;-54
2024/03/21 01:58:54;;;;;;;34.80;15.18;;;11.20;99.90;;;;;;5052760;28;20036;-54
2024/03/21 02:01:22;;;;;;;29.45;14.18;;;11.10;99.90;;;;;;5052696;28;20035;-55
2024/03/21 02:03:50;;;;;;;29.80;14.48;;;11.20;99.90;;;;;;5051477;28;20075;-54
2024/03/21 02:06:15;;;;;;;33.90;14.40;;;11.20;99.90;;;;;;5052409;28;20496;-55
2024/03/21 02:08:41;;;;;;;33.25;14.75;;;11.20;99.90;;;;;;5052483;28;20100;-56
2024/03/21 02:11:08;;;;;;;28.67;15.07;;;11.10;99.90;;;;;;5052401;28;20036;-55
2024/03/21 02:13:33;;;;;;;26.42;13.23;;;11.20;99.90;;;;;;5050879;28;20521;-49
2024/03/21 02:15:59;;;;;;;33.60;14.00;;;11.20;99.90;;;;;;5052383;28;20045;-44
2024/03/21 02:18:24;;;;;;;26.48;12.52;;;11.20;99.90;;;;;;5052676;28;20036;-44
2024/03/21 02:20:50;;;;;;;26.52;13.93;;;11.10;99.90;;;;;;5052368;28;20541;-53
2024/03/21 02:23:16;;;;;;;26.88;13.98;;;11.10;99.90;;;;;;5052340;28;20150;-48
2024/03/21 02:25:42;;;;;;;27.63;13.40;;;11.00;99.90;;;;;;5052379;28;20359;-46
2024/03/21 02:28:07;;;;;;;25.98;13.60;;;11.00;99.90;;;;;;5051722;28;20029;-43
2024/03/21 02:30:33;;;;;;;33.40;13.93;;;11.00;99.90;;;;;;5052404;28;20355;-42
2024/03/21 02:32:58;;;;;;;33.30;14.05;;;10.90;99.90;;;;;;5052242;28;20036;-46
2024/03/21 02:35:24;;;;;;;27.63;13.07;;;10.90;99.90;;;;;;5052098;28;20021;-41
2024/03/21 02:37:50;;;;;;;38.20;15.88;;;10.90;99.90;;;;;;5052315;28;20440;-42
2024/03/21 02:40:16;;;;;;;37.80;12.57;;;10.90;99.90;;;;;;5052434;28;20021;-45
2024/03/21 02:42:41;;;;;;;33.20;14.35;;;11.00;99.90;;;;;;5052487;28;20481;-45
2024/03/21 02:45:07;;;;;;;28.27;13.57;;;11.00;99.90;;;;;;5051288;28;20465;-44
2024/03/21 02:47:34;;;;;;;26.20;14.38;;;11.00;99.90;;;;;;5052317;28;20396;-46
2024/03/21 02:50:00;;;;;;;35.00;14.57;;;11.00;99.90;;;;;;5051906;28;20060;-44
2024/03/21 02:52:25;;;;;;;36.40;14.55;;;11.00;99.90;;;;;;5051902;28;20025;-49
2024/03/21 02:54:51;;;;;;;35.90;15.55;;;10.90;99.90;;;;;;5051717;28;20108;-46
2024/03/21 02:57:16;;;;;;;35.00;15.43;;;10.90;99.90;;;;;;5051934;28;20033;-55
2024/03/21 02:59:42;;;;;;;37.38;16.65;;;10.90;99.90;;;;;;5052157;28;20478;-53
2024/03/21 03:02:09;;;;;;;37.55;16.27;;;10.90;99.90;;;;;;5051747;28;20049;-56
2024/03/21 03:04:34;;;;;;;37.95;17.17;;;10.90;99.90;;;;;;5051777;28;20036;-55
2024/03/21 03:07:00;;;;;;;46.75;17.85;;;11.00;99.90;;;;;;5052102;28;20382;-56
2024/03/21 03:09:25;;;;;;;48.75;17.77;;;11.00;99.90;;;;;;5051690;28;20036;-55
2024/03/21 03:11:51;;;;;;;48.35;18.92;;;10.90;99.90;;;;;;5052054;28;20432;-55
2024/03/21 03:14:17;;;;;;;48.78;20.80;;;10.80;99.90;;;;;;5051515;28;20044;-54
2024/03/21 03:16:42;;;;;;;50.40;20.70;;;10.80;99.90;;;;;;5053937;28;20024;-55
2024/03/21 03:19:08;;;;;;;51.22;19.70;;;10.80;99.90;;;;;;5055600;28;20014;-55
2024/03/21 03:21:34;;;;;;;53.45;20.40;;;10.70;99.90;;;;;;5055764;28;20505;-56
2024/03/21 03:23:59;;;;;;;53.13;20.70;;;10.60;99.90;;;;;;5055331;28;20104;-59
2024/03/21 03:26:25;;;;;;;51.42;20.92;;;10.50;99.90;;;;;;5054715;28;20563;-54
2024/03/21 03:28:51;;;;;;;47.10;19.13;;;10.40;99.90;;;;;;5055926;28;20029;-55
2024/03/21 03:31:16;;;;;;;46.50;20.25;;;10.50;99.90;;;;;;5055175;28;20100;-52
2024/03/21 03:36:28;;;;;;;34.13;16.98;;;10.50;99.90;;;;;;5055662;28;20405;-51
2024/03/21 03:38:53;;;;;;;39.65;17.38;;;10.50;99.90;;;;;;5055567;28;20082;-54
2024/03/21 03:41:19;;;;;;;40.40;17.00;;;10.50;99.90;;;;;;5055043;28;20025;-53
2024/03/21 03:43:45;;;;;;;35.20;15.27;;;10.40;99.90;;;;;;5055177;28;20029;-54
2024/03/21 03:46:11;;;;;;;30.77;16.27;;;10.40;99.90;;;;;;5055084;28;20021;-55
2024/03/21 03:48:36;;;;;;;40.05;16.52;;;10.40;99.90;;;;;;5055531;28;20059;-54
2024/03/21 03:51:02;;;;;;;39.35;16.15;;;10.30;99.90;;;;;;5054932;28;20044;-51
2024/03/21 03:53:28;;;;;;;34.67;15.40;;;10.30;99.90;;;;;;5054647;28;20033;-42
2024/03/21 03:55:53;;;;;;;26.35;12.40;;;10.40;99.90;;;;;;5054838;28;20111;-44
2024/03/21 03:58:20;;;;;;;22.13;11.77;;;10.30;99.90;;;;;;5055091;28;20036;-41
2024/03/21 04:00:54;;;;;;;21.77;10.20;;;10.30;99.90;;;;;;5053334;28;20043;-42
2024/03/21 04:03:19;;;;;;;17.67;7.80;;;10.30;99.90;;;;;;5055102;28;20025;-49
2024/03/21 04:06:01;;;;;;;16.83;7.30;;;10.30;99.90;;;;;;5054863;28;20108;-45
2024/03/21 04:08:27;;;;;;;14.57;7.63;;;10.30;99.90;;;;;;5054634;28;20094;-44
2024/03/21 04:10:55;;;;;;;9.65;6.57;;;10.20;99.90;;;;;;5054351;28;20098;-44
2024/03/21 04:13:20;;;;;;;;;;;10.20;99.90;;;;;;5054560;28;20049;-44
2024/03/21 04:15:54;;;;;;;13.55;6.05;;;10.10;99.90;;;;;;5053506;28;19954;-44
2024/03/21 04:18:19;;;;;;;7.68;5.88;;;10.00;99.90;;;;;;5052436;28;20025;-47
2024/03/21 04:20:45;;;;;;;8.20;5.85;;;10.00;99.90;;;;;;5053769;28;20027;-42
2024/03/21 04:23:11;;;;;;;8.00;4.32;;;10.00;99.90;;;;;;5053336;28;20021;-48
2024/03/21 04:25:37;;;;;;;7.78;4.82;;;10.00;99.90;;;;;;5053512;28;20517;-42
2024/03/21 04:28:02;;;;;;;8.13;5.72;;;10.00;99.90;;;;;;5053093;28;20492;-45
2024/03/21 04:30:28;;;;;;;11.75;5.38;;;9.90;99.90;;;;;;5053016;28;20435;-45
2024/03/21 04:32:54;;;;;;;8.52;5.68;;;9.90;99.90;;;;;;5053509;28;20381;-45
2024/03/21 04:35:20;;;;;;;9.18;5.50;;;9.90;99.90;;;;;;5052871;28;20025;-45
2024/03/21 04:37:47;;;;;;;10.10;6.00;;;9.80;99.90;;;;;;5052895;28;20024;-47
2024/03/21 04:40:13;;;;;;;14.43;5.90;;;9.80;99.90;;;;;;5051909;28;20025;-43
2024/03/21 04:42:39;;;;;;;10.05;6.28;;;9.80;99.90;;;;;;5053169;28;20556;-46
2024/03/21 04:45:06;;;;;;;11.93;6.15;;;9.70;99.90;;;;;;5053112;28;20032;-42
2024/03/21 04:47:32;;;;;;;11.48;6.00;;;9.70;99.90;;;;;;5052446;28;20013;-42
2024/03/21 04:49:57;;;;;;;10.82;6.50;;;9.70;99.90;;;;;;5052971;28;20036;-46
2024/03/21 04:52:25;;;;;;;10.40;6.80;;;9.70;99.90;;;;;;5052940;28;20029;-44
2024/03/21 04:54:51;;;;;;;7.45;4.68;;;9.70;99.90;;;;;;5050672;28;20036;-46
2024/03/21 04:57:17;;;;;;;10.63;5.05;;;9.60;99.90;;;;;;5052439;28;20112;-42
2024/03/21 04:59:42;;;;;;;5.75;4.50;;;9.40;99.90;;;;;;5053127;28;20422;-45
2024/03/21 05:02:08;;;;;;;16.65;5.32;;;9.20;99.90;;;;;;5052618;28;20112;-56
2024/03/21 05:04:34;;;;;;;12.93;4.85;;;9.20;99.90;;;;;;5052766;28;20025;-56
2024/03/21 05:06:59;;;;;;;8.38;4.97;;;9.30;99.90;;;;;;5051522;28;20501;-55
2024/03/21 05:09:25;;;;;;;14.35;4.70;;;9.30;99.90;;;;;;5052787;28;20072;-56
2024/03/21 05:11:51;;;;;;;8.38;4.22;;;9.20;99.90;;;;;;5052760;28;20501;-54
2024/03/21 05:14:16;;;;;;;7.40;4.17;;;9.10;99.90;;;;;;5015481;28;1079626;-56
2024/03/21 05:16:44;;;;;;;4.70;3.45;;;9.10;99.90;;;;;;5053585;28;20103;-55
2024/03/21 05:19:11;;;;;;;10.00;4.65;;;9.00;99.90;;;;;;5053298;28;20083;-55
2024/03/21 05:21:37;;;;;;;11.95;3.83;;;9.10;99.90;;;;;;5053093;28;20059;-56
2024/03/21 05:24:03;;;;;;;14.07;4.18;;;9.10;99.90;;;;;;5053044;28;20029;-56
2024/03/21 05:26:29;;;;;;;11.75;3.58;;;9.00;99.90;;;;;;5052902;28;20095;-56
2024/03/21 05:28:54;;;;;;;9.60;3.40;;;9.00;99.90;;;;;;5053295;28;20029;-55
2024/03/21 05:31:21;;;;;;;7.32;2.60;;;9.00;99.90;;;;;;5053260;28;20112;-56
2024/03/21 05:33:48;;;;;;;5.50;2.47;;;9.00;99.90;;;;;;5053285;28;20102;-55
2024/03/21 05:36:14;;;;;;;7.85;2.38;;;9.00;99.90;;;;;;5052914;28;20032;-61
2024/03/21 05:38:40;;;;;;;11.02;2.78;;;9.00;99.90;;;;;;5052235;28;20118;-55
2024/03/21 05:41:06;;;;;;;10.38;2.47;;;9.10;99.90;;;;;;5052822;28;20025;-55
2024/03/21 05:43:32;;;;;;;8.93;2.70;;;9.10;99.90;;;;;;5053152;28;20124;-51
2024/03/21 05:45:58;;;;;;;11.80;2.85;;;9.10;99.90;;;;;;5051721;28;20028;-56
2024/03/21 05:48:23;;;;;;;7.78;2.40;;;9.10;99.90;;;;;;5053022;28;20021;-44
2024/03/21 05:50:49;;;;;;;10.55;2.42;;;9.10;99.90;;;;;;5052366;28;20513;-53
2024/03/21 05:53:15;;;;;;;3.42;1.75;;;9.10;99.90;;;;;;5052298;28;20032;-48
2024/03/21 05:55:43;;;;;;;9.48;1.80;;;9.10;99.90;;;;;;5053039;28;20031;-47
2024/03/21 05:58:08;;;;;;;7.43;2.10;;;9.10;99.90;;;;;;5053303;28;20083;-45
2024/03/21 06:00:34;;;;;;;6.70;1.67;;;9.10;99.90;;;;;;5052124;28;20386;-45
2024/03/21 06:03:00;;;;;;;7.13;1.88;;;9.10;99.90;;;;;;5052744;28;20409;-41
2024/03/21 06:05:26;;;;;;;5.63;1.73;;;9.10;99.90;;;;;;5052542;28;20017;-42
2024/03/21 06:07:51;;;;;;;5.00;1.02;;;9.10;99.90;;;;;;5052323;28;20056;-44
2024/03/21 06:10:17;;;;;;;16.13;2.42;;;9.10;99.90;;;;;;5052052;28;20025;-44
2024/03/21 06:12:48;;;;;;;5.53;1.50;;;9.10;99.90;;;;;;5051569;28;20029;-57
2024/03/21 06:15:14;;;;;;;9.93;1.40;;;9.10;99.90;;;;;;5052086;28;20401;-52
2024/03/21 06:17:39;;;;;;;8.40;1.25;;;9.10;99.90;;;;;;5052895;28;20040;-57
2024/03/21 06:20:06;;;;;;;8.18;1.10;;;9.10;99.90;;;;;;5052300;28;20025;-57
2024/03/21 06:22:36;;;;;;;2.28;0.63;;;9.00;99.90;;;;;;5051555;28;20053;-58
2024/03/21 06:25:02;;;;;;;1.73;0.73;;;8.90;99.90;;;;;;5052631;28;20486;-57
2024/03/21 06:27:28;;;;;;;1.13;0.80;;;9.00;99.90;;;;;;5052804;28;20040;-57
2024/03/21 06:29:53;;;;;;;6.50;1.20;;;9.00;99.90;;;;;;5052329;28;20504;-58
2024/03/21 06:32:19;;;;;;;1.30;0.77;;;8.90;99.90;;;;;;5052462;28;20020;-57
2024/03/21 06:34:44;;;;;;;9.80;1.27;;;8.90;99.90;;;;;;5052220;28;20477;-57
2024/03/21 06:37:10;;;;;;;7.95;1.17;;;9.00;99.90;;;;;;5052486;28;20104;-56
2024/03/21 06:39:35;;;;;;;5.70;0.80;;;8.90;99.90;;;;;;5052043;28;20492;-57
2024/03/21 06:42:01;;;;;;;5.55;1.02;;;8.90;99.90;;;;;;5052578;28;20052;-55
2024/03/21 06:44:27;;;;;;;7.05;1.63;;;9.00;99.90;;;;;;5051745;28;20045;-57
2024/03/21 06:46:52;;;;;;;0.70;0.60;;;9.10;99.90;;;;;;5052093;28;20416;-58
2024/03/21 06:49:18;;;;;;;5.95;1.40;;;9.00;99.90;;;;;;5051288;28;20446;-57
2024/03/21 06:51:44;;;;;;;8.70;1.70;;;9.10;99.90;;;;;;5050956;28;20389;-56
2024/03/21 06:54:09;;;;;;;7.13;1.42;;;9.00;99.90;;;;;;5050209;28;20116;-58
2024/03/21 06:56:35;;;;;;;5.50;0.98;;;9.10;99.90;;;;;;5051942;28;20041;-54
2024/03/21 06:59:00;;;;;;;3.33;0.90;;;9.00;99.90;;;;;;5052034;28;20492;-57
2024/03/21 07:01:26;;;;;;;7.82;1.58;;;9.10;99.90;;;;;;5051685;28;20056;-57
2024/03/21 07:03:53;;;;;;;5.13;1.38;;;9.10;99.90;;;;;;5050468;28;20033;-55
2024/03/21 07:06:19;;;;;;;1.92;1.00;;;9.10;99.90;;;;;;5051958;28;20061;-56
2024/03/21 07:08:44;;;;;;;6.70;1.27;;;9.20;99.90;;;;;;5051250;28;20038;-56
2024/03/21 07:11:10;;;;;;;2.03;1.05;;;9.20;99.90;;;;;;5051930;28;20025;-55
2024/03/21 07:13:35;;;;;;;4.20;1.27;;;9.20;99.90;;;;;;5051678;28;20505;-55
2024/03/21 07:16:01;;;;;;;8.65;1.35;;;9.20;99.90;;;;;;5051925;28;20021;-55
2024/03/21 07:18:27;;;;;;;3.80;1.08;;;9.20;99.90;;;;;;5051469;28;20029;-54
2024/03/21 07:20:56;;;;;;;7.22;1.67;;;9.20;99.90;;;;;;5051898;28;20032;-55
2024/03/21 07:23:22;;;;;;;2.60;1.17;;;9.20;99.90;;;;;;5051746;28;20547;-54
2024/03/21 07:25:48;;;;;;;5.65;1.30;;;9.20;99.90;;;;;;5051814;28;20021;-55
2024/03/21 07:28:13;;;;;;;2.78;1.00;;;9.20;99.90;;;;;;5051913;28;20397;-57
2024/03/21 07:30:39;;;;;;;8.90;1.30;;;9.30;99.90;;;;;;5051165;28;20078;-55
2024/03/21 07:33:04;;;;;;;1.15;0.90;;;9.50;99.90;;;;;;5049657;28;20447;-62
2024/03/21 07:35:30;;;;;;;4.93;0.88;;;9.50;99.90;;;;;;5051752;28;20483;-56
2024/03/21 07:37:56;;;;;;;5.72;1.40;;;9.40;99.90;;;;;;5051371;28;20051;-55
2024/03/21 07:40:21;;;;;;;3.00;0.88;;;9.40;99.90;;;;;;5051450;28;20419;-56
2024/03/21 07:42:47;;;;;;;2.35;1.05;;;9.40;99.90;;;;;;5051356;28;20432;-55
2024/03/21 07:45:13;;;;;;;8.50;1.30;;;9.30;99.90;;;;;;5051101;28;20021;-55
2024/03/21 07:47:40;;;;;;;5.20;1.25;;;9.30;99.90;;;;;;5051418;28;20051;-52
2024/03/21 07:50:06;;;;;;;5.43;1.40;;;9.30;99.90;;;;;;5050794;28;20537;-54
2024/03/21 07:52:31;;;;;;;6.10;0.90;;;9.30;99.90;;;;;;5051203;28;20043;-55
2024/03/21 07:54:57;;;;;;;3.15;1.00;;;9.30;99.90;;;;;;5034267;28;20104;-55
2024/03/21 07:57:23;;;;;;;4.53;0.95;;;9.20;99.90;;;;;;5031650;28;20482;-54
2024/03/21 07:59:49;;;;;;;2.90;0.55;;;9.30;99.90;;;;;;5031638;28;20037;-55
2024/03/21 08:02:15;;;;;;;4.85;1.70;;;9.30;99.90;;;;;;5052695;28;20470;-46
2024/03/21 08:04:41;;;;;;;3.53;0.90;;;9.40;99.90;;;;;;5054558;28;20036;-47
2024/03/21 08:07:06;;;;;;;4.00;1.00;;;9.40;99.90;;;;;;5054895;28;20029;-49
2024/03/21 08:09:32;;;;;;;1.77;1.20;;;9.40;99.90;;;;;;5052175;28;20091;-46
2024/03/21 08:11:57;;;;;;;4.47;1.20;;;9.60;99.90;;;;;;5054575;28;20033;-43
2024/03/21 08:14:23;;;;;;;6.22;1.05;;;9.50;99.90;;;;;;5054559;28;20558;-44
2024/03/21 08:16:49;;;;;;;12.23;1.13;;;9.60;99.90;;;;;;5055001;28;20040;-42
2024/03/21 08:19:14;;;;;;;5.28;0.90;;;9.70;99.90;;;;;;5054914;28;20059;-43
2024/03/21 08:21:40;;;;;;;4.07;1.00;;;9.90;99.90;;;;;;5054695;28;20056;-44
2024/03/21 08:24:06;;;;;;;7.57;0.75;;;10.00;99.90;;;;;;5054000;28;20040;-44
2024/03/21 08:26:31;;;;;;;10.50;1.40;;;10.00;99.90;;;;;;5055068;28;20029;-44
2024/03/21 08:28:57;;;;;;;4.07;0.93;;;10.00;99.90;;;;;;5054340;28;20501;-43
2024/03/21 08:31:23;;;;;;;1.60;1.23;;;10.10;99.90;;;;;;5054267;28;20025;-45
2024/03/21 08:33:48;;;;;;;7.05;0.82;;;10.20;99.90;;;;;;5054392;28;20557;-55
2024/03/21 08:36:14;;;;;;;7.97;1.30;;;10.20;99.90;;;;;;5054424;28;20035;-56
2024/03/21 08:38:40;;;;;;;5.30;1.30;;;10.20;99.90;;;;;;5052679;28;20028;-61
2024/03/21 08:41:07;;;;;;;1.95;1.25;;;10.20;99.90;;;;;;5054369;28;20017;-55
2024/03/21 08:43:33;;;;;;;4.85;1.15;;;10.10;99.90;;;;;;5054432;28;20027;-56
2024/03/21 08:45:58;;;;;;;1.75;0.90;;;10.10;99.90;;;;;;5054228;28;20548;-56
2024/03/21 08:48:25;;;;;;;3.20;0.80;;;10.10;99.90;;;;;;5058350;28;20025;-55
2024/03/21 08:50:50;;;;;;;7.28;2.30;;;10.00;99.90;;;;;;5056868;28;20040;-56
2024/03/21 08:53:17;;;;;;;10.63;0.90;;;10.10;99.90;;;;;;5057368;28;20029;-55
2024/03/21 08:55:43;;;;;;;5.45;1.45;;;10.10;99.90;;;;;;5053688;28;20028;-55
2024/03/21 08:58:09;;;;;;;4.63;1.52;;;10.20;99.90;;;;;;5053493;28;20508;-56
2024/03/21 09:00:37;;;;;;;3.88;1.05;;;10.30;99.90;;;;;;5053522;28;20025;-55
2024/03/21 09:03:03;;;;;;;2.60;1.20;;;10.50;99.90;;;;;;5052729;28;20025;-54
2024/03/21 09:05:29;;;;;;;2.40;0.60;;;10.50;99.90;;;;;;5051525;28;20063;-55
2024/03/21 09:07:55;;;;;;;1.85;1.30;;;10.60;99.90;;;;;;5051954;28;20032;-56
2024/03/21 09:10:21;;;;;;;4.18;1.10;;;10.60;99.90;;;;;;5051827;28;20612;-55
2024/03/21 09:12:47;;;;;;;2.08;1.10;;;10.60;99.90;;;;;;5052100;28;20036;-42
2024/03/21 09:15:19;;;;;;;3.17;1.40;;;10.60;99.90;;;;;;5051381;28;20036;-47
2024/03/21 09:17:45;;;;;;;4.65;1.10;;;10.60;99.90;;;;;;5051772;28;20155;-47
2024/03/21 09:20:11;;;;;;;6.38;1.33;;;10.50;99.90;;;;;;5054667;28;20017;-50
2024/03/21 09:22:37;;;;;;;5.90;1.20;;;10.60;99.90;;;;;;5052234;28;20031;-40
2024/03/21 09:25:03;;;;;;;10.88;1.05;;;10.80;99.90;;;;;;5054783;28;20308;-43
2024/03/21 09:27:29;;;;;;;2.88;1.15;;;11.00;99.90;;;;;;5053741;28;20555;-43
2024/03/21 09:29:55;;;;;;;8.32;1.70;;;11.30;99.90;;;;;;5053163;28;20025;-46
2024/03/21 09:32:21;;;;;;;7.95;1.60;;;11.30;99.90;;;;;;5052934;28;20401;-45
2024/03/21 09:34:49;;;;;;;2.25;1.50;;;11.20;99.90;;;;;;5052510;28;20021;-43
2024/03/21 09:37:16;;;;;;;2.80;1.20;;;11.20;99.90;;;;;;5053194;28;20025;-47
2024/03/21 09:39:42;;;;;;;5.63;1.42;;;11.00;99.90;;;;;;5052234;28;20107;-46
2024/03/21 09:42:12;;;;;;;6.82;1.27;;;11.10;99.90;;;;;;5053086;28;20377;-56
2024/03/21 09:44:39;;;;;;;3.53;1.35;;;11.20;99.90;;;;;;5053695;28;20473;-54
2024/03/21 09:47:06;;;;;;;3.05;1.33;;;11.40;99.90;;;;;;5053227;28;20539;-56
2024/03/21 09:49:31;;;;;;;2.63;1.20;;;11.30;99.90;;;;;;5053003;28;20033;-56
2024/03/21 09:51:58;;;;;;;5.22;1.52;;;11.30;99.90;;;;;;5053141;28;20117;-56
2024/03/21 09:54:24;;;;;;;6.22;1.08;;;11.20;99.90;;;;;;5053097;28;20390;-43
2024/03/21 09:56:53;;;;;;;12.35;1.38;;;11.40;99.90;;;;;;5053013;28;20397;-43
2024/03/21 09:59:20;;;;;;;4.65;1.42;;;11.40;99.90;;;;;;5053141;28;20032;-46
2024/03/21 10:01:46;;;;;;;6.43;1.48;;;11.20;99.90;;;;;;5053039;28;20397;-47
2024/03/21 10:04:12;;;;;;;1.98;1.25;;;11.10;99.90;;;;;;5053477;28;20025;-56
2024/03/21 10:06:47;;;;;;;3.40;1.30;;;11.20;99.90;;;;;;5053905;28;20382;-56
2024/03/21 10:09:14;;;;;;;3.75;1.90;;;11.30;99.90;;;;;;5052834;28;20033;-55
2024/03/21 10:11:43;;;;;;;6.80;2.35;;;11.50;99.90;;;;;;5051774;28;20112;-58
2024/03/21 10:14:13;;;;;;;7.80;1.73;;;11.70;99.90;;;;;;5051844;28;20052;-62
2024/03/21 10:16:40;;;;;;;5.75;1.63;;;11.90;99.90;;;;;;5053092;28;20481;-56
2024/03/21 10:19:08;;;;;;;3.90;1.70;;;11.90;99.90;;;;;;5052564;28;20025;-55
2024/03/21 10:21:33;;;;;;;3.58;1.83;;;11.90;99.90;;;;;;5052922;28;20032;-56
2024/03/21 10:24:03;;;;;;;3.70;2.15;;;11.70;99.90;;;;;;5051020;28;20359;-56
2024/03/21 10:26:30;;;;;;;2.53;2.35;;;11.80;99.90;;;;;;5050943;28;20047;-56
2024/03/21 10:28:56;;;;;;;10.43;2.53;;;11.80;99.90;;;;;;5051008;28;20499;-56
2024/03/21 10:31:22;;;;;;;6.18;2.90;;;11.80;99.90;;;;;;5052325;28;20032;-56
2024/03/21 10:33:53;;;;;;;11.18;2.15;;;11.90;99.90;;;;;;5052314;28;20036;-57
2024/03/21 10:36:19;;;;;;;5.03;2.53;;;12.20;99.90;;;;;;5052638;28;20029;-56
2024/03/21 10:38:45;;;;;;;9.82;3.70;;;12.20;99.90;;;;;;5042190;28;20484;-61
2024/03/21 10:41:23;;;;;;;5.30;2.65;;;12.10;99.90;;;;;;5051077;28;20079;-56
2024/03/21 10:44:14;;;;;;;3.45;3.15;;;12.20;99.90;;;;;;5048912;28;20469;-57
2024/03/21 10:46:39;;;;;;;9.60;2.88;;;12.10;99.90;;;;;;5044738;28;20492;-57
2024/03/21 10:49:05;;;;;;;8.82;3.22;;;12.20;99.90;;;;;;5050979;28;20112;-57
2024/03/21 10:51:40;;;;;;;11.52;3.30;;;12.10;99.90;;;;;;5051880;28;20470;-53
2024/03/21 10:54:06;;;;;;;4.18;3.00;;;12.00;99.90;;;;;;5049884;28;20116;-55
2024/03/21 10:56:39;;;;;;;5.00;3.50;;;11.90;99.90;;;;;;5051384;28;20657;-56
2024/03/21 10:59:05;;;;;;;8.82;3.60;;;11.90;99.90;;;;;;5051559;28;20499;-55
2024/03/21 11:01:37;;;;;;;6.47;3.53;;;11.70;99.90;;;;;;5051487;28;20021;-56
2024/03/21 11:04:04;;;;;;;8.95;3.40;;;11.70;99.90;;;;;;5051047;28;20037;-55
2024/03/21 11:06:37;;;;;;;7.53;3.65;;;11.60;99.90;;;;;;5051991;28;20028;-59
2024/03/21 11:09:04;;;;;;;7.88;3.72;;;11.80;99.90;;;;;;5050910;28;20493;-54
2024/03/21 11:11:33;;;;;;;5.65;3.70;;;12.00;99.90;;;;;;5050295;28;20036;-54
2024/03/21 11:14:09;;;;;;;13.95;3.92;;;12.00;99.90;;;;;;5051407;28;20562;-56
2024/03/21 11:16:40;;;;;;;8.13;4.32;;;12.00;99.90;;;;;;5039464;28;20393;-55
2024/03/21 11:19:06;;;;;;;4.72;3.92;;;12.00;99.90;;;;;;5051354;28;20064;-55
2024/03/21 11:21:32;;;;;;;7.50;4.50;;;11.90;99.90;;;;;;5051533;28;20017;-55
2024/03/21 11:23:57;;;;;;;8.45;4.40;;;11.90;99.90;;;;;;5051407;28;20033;-54
2024/03/21 11:26:23;;;;;;;9.32;5.18;;;12.00;99.90;;;;;;5051255;28;20025;-51
2024/03/21 11:28:50;;;;;;;8.75;5.95;;;12.00;99.90;;;;;;5051722;28;20059;-54
2024/03/21 11:31:31;;;;;;;14.50;8.57;;;12.00;99.90;;;;;;5051694;28;20440;-46
2024/03/21 11:33:57;;;;;;;15.77;8.68;;;12.00;99.90;;;;;;5046379;28;20040;-46
2024/03/21 11:36:23;;;;;;;10.57;8.27;;;12.00;99.90;;;;;;5051156;28;20024;-44
2024/03/21 11:38:50;;;;;;;20.75;9.65;;;12.00;99.90;;;;;;5055304;28;20044;-45
2024/03/21 11:41:21;;;;;;;19.25;10.35;;;12.00;99.90;;;;;;5054682;28;20025;-45
2024/03/21 11:43:49;;;;;;;16.65;9.52;;;12.20;99.90;;;;;;5054559;28;20416;-44
2024/03/21 11:46:15;;;;;;;14.25;8.95;;;12.20;99.90;;;;;;5056035;28;20428;-46
2024/03/21 11:48:40;;;;;;;13.85;7.72;;;12.10;99.90;;;;;;5055330;28;20045;-46
2024/03/21 11:51:13;;;;;;;4.68;3.55;;;11.70;99.90;;;;;;5055442;28;20033;-47
2024/03/21 11:53:39;;;;;;;2.78;2.17;;;11.40;99.90;;;;;;5055705;28;20482;-45
2024/03/21 11:56:04;;;;;;;4.53;1.33;;;11.50;99.90;;;;;;5055380;28;20103;-43
2024/03/21 11:58:30;;;;;;;5.95;1.50;;;11.50;99.90;;;;;;5055352;28;20040;-45
2024/03/21 12:00:56;;;;;;;5.43;1.60;;;11.50;99.90;;;;;;5055312;28;20029;-46
2024/03/21 12:03:21;;;;;;;1.55;1.30;;;11.40;99.90;;;;;;5055408;28;20465;-45
2024/03/21 12:05:47;;;;;;;4.75;2.15;;;11.50;99.90;;;;;;5055123;28;20025;-44
2024/03/21 12:08:12;;;;;;;4.05;1.63;;;11.60;99.90;;;;;;5055226;28;20028;-44
2024/03/21 12:10:38;;;;;;;4.00;1.25;;;11.50;99.90;;;;;;5055095;28;20024;-48
2024/03/21 12:13:04;;;;;;;8.57;1.40;;;11.50;99.90;;;;;;5055142;28;20037;-43
2024/03/21 12:15:29;;;;;;;9.63;1.30;;;11.40;99.90;;;;;;5054826;28;20405;-47
2024/03/21 12:17:55;;;;;;;4.90;1.33;;;11.50;99.90;;;;;;5054945;28;20037;-48
2024/03/21 12:20:22;;;;;;;9.27;1.27;;;11.40;99.90;;;;;;5055074;28;20392;-46
2024/03/21 12:22:47;;;;;;;7.47;1.35;;;11.40;99.90;;;;;;5053359;28;20033;-45
2024/03/21 12:25:13;;;;;;;4.50;1.67;;;11.50;99.90;;;;;;5055124;28;20470;-46
2024/03/21 12:27:39;;;;;;;7.53;1.50;;;11.50;99.90;;;;;;5055032;28;20034;-44
2024/03/21 12:30:05;;;;;;;6.47;1.30;;;11.70;99.90;;;;;;5055038;28;20390;-53
2024/03/21 12:32:31;;;;;;;2.78;1.13;;;11.70;99.90;;;;;;5054736;28;20061;-46
2024/03/21 12:34:56;;;;;;;5.18;1.40;;;11.60;99.90;;;;;;5054737;28;20520;-45
2024/03/21 12:37:22;;;;;;;6.47;1.23;;;11.60;99.90;;;;;;5054668;28;20025;-46
2024/03/21 12:39:48;;;;;;;3.00;1.30;;;11.60;99.90;;;;;;5054224;28;20029;-44
2024/03/21 12:42:15;;;;;;;2.88;1.30;;;11.50;99.90;;;;;;5054542;28;20489;-45